< < Back
Terminal Aerodrome Forecast


Current Version              Previous Versions:   1  2  3  4  5  6  7  8  9  

Terminal Aerodrome Forecast

629
FTUS42 KGSP 250500
TAFCLT
TAF
KCLT 250535Z 2506/2606 01003KT P6SM BKN060
     FM250900 02003KT 4SM BR SCT020 BKN060
     FM251100 03005KT 4SM BR BKN019
     FM251300 03006KT P6SM BKN023
     FM251600 05006KT P6SM BKN035
     FM252000 06005KT P6SM BKN045
     FM252200 08005KT P6SM SCT045=

Latest METAR

847
SAUS70 KWBC 251100
MTRCLT
METAR KCLT 251052Z 05005KT 6SM BR OVC008 20/18 A3005 RMK AO2 SLP169
T02000178


USA.gov is the U.S. government's official web portal to all federal, state and local government web resources and services.